Etusivu
METAR-TAF:

METAR-TAF

Lentoasemat :

Lubbock, Texas, Yhdysvallat

Leveyspiiri: 33-40-03N, Pituuspiiri: 101-49-17W, korkeus merenpinnasta: 1000 m

Tämänhetkinen sää

Tämä raportti tehtiin 55 minuuttia sitten, kello 07.53 UTC
Tuuli 14 kn etelästä/lounaasta
Lämpötila 26°C
Kosteus 58%
Ilmanpaine 1022 hPa
Näkyvyys: 16.1 km
selkeää

METAR: KLBB 140753Z 20014KT 10SM CLR 26/17 A3018 RMK AO2 SLP159 T02610172

Aika: 03:48 (08:48 UTC)

Sääennuste

Tämä raportti tehtiin 3 tuntia ja 28 minuuttia sitten, kello 05.20 UTC
Ennuste voimassa 14. päivästä klo 06 UTC - 15. päivään klo 06 UTC
Tuuli 11 kn etelästä
Näkyvyys: 10 km
selkeää
From 14. päivästä klo 1400 UTC
Tuuli 11 kn lounaasta
Näkyvyys: 10 km
selkeää

TAF: KLBB 140520Z 1406/1506 17011KT P6SM SKC FM141400 22011KT P6SM SKC

Säähavainnot ja -ennusteet yli 4000 lentoasemalta (METAR- ja TAF-raportit).

Käytössä olevat sääasemat on merkitty karttaan keltaisilla ja punaisilla pisteillä.

Aseta hiiri pisteen päälle nähdäksesi sääaseman nimen.

Klikkaa sitten nähdäksesi säähavainnot ja -ennusteet.

Kartan vaihtaminen: klikkaa mustalla rastilla varustettuja vihreitä pisteitä, niin voit zoomata sisään; viivalla varustettua vihreää pistettä, niin voit zoomata ulos tai vihreitä nuolia, niin pääset viereisille kartoille.


METAR-TAF: